Terminal Aerodrome Forecast
Issued by NWS

Home | Current Version | Previous Version | Text Only | Print | Product List | Glossary Off
Versions: 1 2 3 4 5 6 7 8 9 10 11 12 13 14 15 16 17 18 19 20 21 22 23 24 25 26 27 28 29 30 31

000
FTUS43 KLOT 212300 RRA
TAFORD
TAF
KORD 212342Z 2200/2306 26010KT 6SM SHRA OVC050
     FM220130 31009KT P6SM OVC050
     FM220500 35012G21KT P6SM FEW080
     FM222200 03011G18KT P6SM FEW250
     FM230000 05006KT P6SM FEW250=

USA.gov is the U.S. government's official web portal to all federal, state and local government web resources and services.